createdAt,value
2022-08-18T00:01:54.713Z,3.15
2022-08-18T00:04:36.355Z,3.40
2022-08-18T00:07:18.964Z,3.13
2022-08-18T00:09:47.791Z,3.28
2022-08-18T00:12:24.705Z,3.35
2022-08-18T00:14:52.906Z,3.50
2022-08-18T00:17:21.380Z,3.33
2022-08-18T00:19:49.053Z,3.60
2022-08-18T00:22:19.758Z,3.70
2022-08-18T00:24:50.325Z,3.47
2022-08-18T00:27:26.191Z,3.30
2022-08-18T00:30:00.347Z,2.92
2022-08-18T00:32:31.206Z,3.35
2022-08-18T00:35:04.257Z,3.00
2022-08-18T00:37:31.552Z,3.28
2022-08-18T00:39:58.840Z,3.10
2022-08-18T00:42:30.550Z,3.67
2022-08-18T00:45:02.414Z,3.25
2022-08-18T00:47:42.078Z,3.35
2022-08-18T00:50:23.841Z,3.20
2022-08-18T00:53:00.655Z,3.45
2022-08-18T00:55:30.409Z,3.70
2022-08-18T00:58:09.194Z,3.42
2022-08-18T01:00:37.716Z,3.33
2022-08-18T01:03:11.403Z,3.50
2022-08-18T01:05:53.280Z,3.03
2022-08-18T01:08:28.532Z,2.92
2022-08-18T01:10:57.910Z,3.17
2022-08-18T01:13:30.772Z,3.28
2022-08-18T01:15:58.471Z,3.00
2022-08-18T01:18:44.715Z,3.53
2022-08-18T01:21:43.694Z,3.38
2022-08-18T01:24:13.051Z,2.90
2022-08-18T01:26:50.504Z,3.15
2022-08-18T01:29:20.182Z,3.40
2022-08-18T01:31:56.929Z,2.80
2022-08-18T01:34:26.384Z,3.00
2022-08-18T01:36:55.051Z,3.20
2022-08-18T01:40:59.671Z,3.10
2022-08-18T01:42:11.459Z,2.80
2022-08-18T01:44:42.065Z,3.30
2022-08-18T01:47:13.083Z,3.10
2022-08-18T01:49:43.157Z,3.00
2022-08-18T01:52:21.311Z,2.92
2022-08-18T01:54:49.587Z,2.70
2022-08-18T01:57:17.449Z,2.97
2022-08-18T01:59:44.790Z,2.90
2022-08-18T02:02:18.418Z,2.90
2022-08-18T02:04:47.477Z,3.20
2022-08-18T02:07:15.036Z,3.08
2022-08-18T02:09:43.679Z,3.13
2022-08-18T02:12:11.445Z,2.67
2022-08-18T02:14:39.437Z,2.65
2022-08-18T02:17:09.247Z,2.95
2022-08-18T02:19:47.804Z,2.70
2022-08-18T02:22:18.099Z,2.90
2022-08-18T02:24:46.200Z,2.70
2022-08-18T02:27:14.984Z,3.03
2022-08-18T02:29:42.587Z,2.95
2022-08-18T02:32:10.079Z,2.97
2022-08-18T02:34:37.717Z,3.03
2022-08-18T02:37:05.171Z,2.80
2022-08-18T02:39:35.536Z,2.80
2022-08-18T02:42:02.993Z,3.30
2022-08-18T02:44:32.077Z,2.80
2022-08-18T02:46:59.806Z,2.85
2022-08-18T02:49:27.459Z,2.90
2022-08-18T02:51:55.022Z,2.88
2022-08-18T02:54:23.896Z,2.75
2022-08-18T02:56:52.718Z,2.70
2022-08-18T02:59:24.301Z,2.83
2022-08-18T03:01:54.054Z,3.00
2022-08-18T03:04:29.565Z,2.88
2022-08-18T03:07:03.347Z,2.63
2022-08-18T03:09:31.902Z,2.92
2022-08-18T03:11:59.950Z,2.63
2022-08-18T03:14:27.951Z,2.35
2022-08-18T03:16:55.608Z,2.90
2022-08-18T03:19:28.663Z,2.60
2022-08-18T03:21:59.383Z,2.90
2022-08-18T03:24:31.602Z,2.92
2022-08-18T03:27:01.553Z,2.75
2022-08-18T03:29:32.482Z,2.55
2022-08-18T03:32:02.305Z,2.58
2022-08-18T03:34:30.380Z,2.95
2022-08-18T03:36:57.838Z,2.58
2022-08-18T03:39:25.306Z,2.72
2022-08-18T03:41:59.499Z,2.95
2022-08-18T03:44:31.079Z,2.60
2022-08-18T03:46:59.235Z,2.80
2022-08-18T03:49:28.311Z,2.70
2022-08-18T03:51:55.967Z,2.90
2022-08-18T03:54:23.363Z,2.90
2022-08-18T03:56:50.780Z,2.92
2022-08-18T03:59:21.214Z,2.90
2022-08-18T04:01:50.166Z,3.13
2022-08-18T04:04:21.089Z,2.95
2022-08-18T04:07:05.048Z,2.72
2022-08-18T04:09:34.072Z,3.03
2022-08-18T04:12:15.443Z,2.80
2022-08-18T04:14:48.458Z,3.10
2022-08-18T04:17:24.444Z,2.80
2022-08-18T04:19:53.678Z,3.00
2022-08-18T04:22:21.105Z,3.00
2022-08-18T04:24:50.158Z,2.83
2022-08-18T04:27:19.217Z,2.92
2022-08-18T04:29:46.896Z,2.97
2022-08-18T04:32:14.577Z,2.67
2022-08-18T04:34:41.885Z,2.83
2022-08-18T04:37:10.043Z,2.90
2022-08-18T04:39:37.818Z,2.47
2022-08-18T04:42:06.038Z,2.75
2022-08-18T04:44:34.420Z,3.50
2022-08-18T04:47:02.494Z,2.67
2022-08-18T04:49:31.932Z,3.00
2022-08-18T04:52:36.334Z,3.00
2022-08-18T04:55:07.176Z,2.92
2022-08-18T04:57:35.166Z,3.15
2022-08-18T05:00:02.967Z,2.90
2022-08-18T05:02:31.585Z,2.90
2022-08-18T05:04:59.065Z,2.60
2022-08-18T05:07:26.473Z,2.80
2022-08-18T05:09:55.625Z,3.10
2022-08-18T05:12:26.177Z,2.83
2022-08-18T05:14:57.279Z,2.80
2022-08-18T05:17:30.440Z,2.60
2022-08-18T05:19:59.939Z,2.78
2022-08-18T05:22:30.899Z,2.75
2022-08-18T05:25:00.413Z,2.65
2022-08-18T05:27:33.320Z,2.97
2022-08-18T05:30:00.884Z,2.72
2022-08-18T05:32:47.589Z,2.45
2022-08-18T05:35:26.515Z,2.97
2022-08-18T05:38:08.960Z,3.08
2022-08-18T05:40:36.769Z,2.67
2022-08-18T05:43:05.346Z,2.70
2022-08-18T05:45:34.745Z,2.70
2022-08-18T05:48:02.247Z,2.70
2022-08-18T05:50:32.380Z,2.50
2022-08-18T05:53:13.691Z,2.78
2022-08-18T05:56:12.761Z,3.40
2022-08-18T05:58:45.862Z,3.13
2022-08-18T06:01:19.519Z,3.40
2022-08-18T06:04:01.639Z,3.13
2022-08-18T06:06:31.318Z,3.40
2022-08-18T06:09:13.763Z,3.33
2022-08-18T06:11:41.124Z,3.55
2022-08-18T06:14:08.605Z,3.85
2022-08-18T06:16:54.752Z,3.72
2022-08-18T06:19:49.689Z,4.00
2022-08-18T06:22:19.844Z,4.18
2022-08-18T06:25:10.229Z,4.20
2022-08-18T06:28:03.268Z,4.35
2022-08-18T06:30:42.999Z,4.30
2022-08-18T06:33:39.870Z,4.50
2022-08-18T06:36:19.289Z,4.28
2022-08-18T06:39:08.425Z,4.38
2022-08-18T06:41:54.831Z,3.97
2022-08-18T06:44:33.749Z,4.50
2022-08-18T06:47:16.111Z,3.80
2022-08-18T06:49:51.346Z,4.18
2022-08-18T06:52:24.078Z,4.20
2022-08-18T06:54:52.839Z,3.90
2022-08-18T06:57:35.747Z,4.20
2022-08-18T07:00:08.124Z,4.47
2022-08-18T07:03:07.466Z,3.67
2022-08-18T07:05:37.042Z,3.50
2022-08-18T07:08:14.437Z,4.03
2022-08-18T07:10:48.803Z,3.78
2022-08-18T07:15:48.597Z,3.25
2022-08-18T07:18:24.695Z,3.35
2022-08-18T07:20:56.365Z,4.10
2022-08-18T07:23:39.097Z,3.60
2022-08-18T07:26:17.897Z,3.88
2022-08-18T07:28:49.468Z,3.72
2022-08-18T07:31:27.834Z,3.65
2022-08-18T07:34:28.756Z,3.80
2022-08-18T07:37:28.419Z,3.90
2022-08-18T07:40:03.076Z,3.78
2022-08-18T07:42:54.050Z,3.90
2022-08-18T07:45:25.457Z,3.85
2022-08-18T07:48:38.544Z,3.85
2022-08-18T07:51:32.599Z,3.70
2022-08-18T07:54:25.596Z,3.60
2022-08-18T07:57:21.262Z,3.88
2022-08-18T08:00:18.801Z,3.78
2022-08-18T08:03:06.867Z,4.20
2022-08-18T08:05:43.427Z,3.80
2022-08-18T08:08:39.791Z,3.88
2022-08-18T08:11:18.976Z,3.90
2022-08-18T08:13:55.732Z,3.95
2022-08-18T08:16:41.323Z,3.75
2022-08-18T08:19:49.421Z,4.00
2022-08-18T08:22:30.622Z,3.92
2022-08-18T08:25:03.469Z,3.83
2022-08-18T08:27:52.567Z,3.90
2022-08-18T08:30:23.485Z,3.97
2022-08-18T08:33:03.055Z,3.97
2022-08-18T08:35:50.643Z,3.90
2022-08-18T08:38:58.427Z,3.78
2022-08-18T08:41:46.666Z,4.05
2022-08-18T08:44:59.099Z,3.80
2022-08-18T08:47:53.343Z,3.63
2022-08-18T08:50:25.130Z,4.10
2022-08-18T08:53:20.988Z,3.90
2022-08-18T08:55:53.634Z,3.67
2022-08-18T08:58:50.570Z,3.85
2022-08-18T09:01:29.636Z,3.60
2022-08-18T09:04:09.686Z,3.53
2022-08-18T09:07:03.343Z,3.95
2022-08-18T09:09:45.785Z,3.67
2022-08-18T09:12:39.316Z,3.80
2022-08-18T09:15:20.784Z,3.92
2022-08-18T09:18:04.209Z,3.40
2022-08-18T09:20:55.906Z,3.58
2022-08-18T09:23:43.187Z,3.95
2022-08-18T09:26:42.265Z,3.53
2022-08-18T09:29:44.007Z,4.03
2022-08-18T09:32:24.206Z,3.53
2022-08-18T09:35:13.497Z,3.53
2022-08-18T09:38:13.330Z,3.28
2022-08-18T09:41:09.458Z,3.45
2022-08-18T09:44:18.273Z,3.35
2022-08-18T09:46:57.366Z,3.40
2022-08-18T09:49:27.885Z,3.50
2022-08-18T09:51:58.801Z,3.47
2022-08-18T09:54:33.192Z,3.28
2022-08-18T09:59:47.660Z,3.17
2022-08-18T10:02:37.679Z,3.25
2022-08-18T10:05:22.384Z,3.05
2022-08-18T10:08:14.823Z,3.08
2022-08-18T10:11:09.310Z,2.97
2022-08-18T10:13:55.073Z,3.30
2022-08-18T10:16:38.288Z,3.40
2022-08-18T10:22:43.882Z,3.20
2022-08-18T10:25:23.114Z,2.80
2022-08-18T10:27:55.192Z,2.95
2022-08-18T10:30:56.587Z,3.00
2022-08-18T10:34:00.076Z,3.05
2022-08-18T10:36:47.749Z,2.95
2022-08-18T10:39:41.229Z,3.00
2022-08-18T10:42:47.003Z,3.10
2022-08-18T10:45:24.469Z,3.20
2022-08-18T10:48:30.539Z,2.70
2022-08-18T10:51:21.655Z,3.45
2022-08-18T10:54:11.801Z,3.03
2022-08-18T10:56:57.329Z,2.83
2022-08-18T10:59:30.419Z,2.95
2022-08-18T11:02:48.755Z,3.00
2022-08-18T11:05:22.162Z,2.55
2022-08-18T11:07:59.076Z,2.85
2022-08-18T11:11:24.743Z,2.45
2022-08-18T11:14:01.367Z,2.70
2022-08-18T11:16:55.221Z,3.05
2022-08-18T11:19:23.321Z,2.88
2022-08-18T11:21:53.218Z,2.70
2022-08-18T11:24:24.836Z,3.15
2022-08-18T11:27:17.321Z,2.72
2022-08-18T11:29:45.998Z,2.75
2022-08-18T11:32:36.059Z,3.00
2022-08-18T11:35:18.740Z,3.13
2022-08-18T11:37:53.183Z,2.75
2022-08-18T11:41:08.623Z,3.10
2022-08-18T11:43:15.231Z,3.13
2022-08-18T11:45:46.911Z,3.20
2022-08-18T11:48:42.434Z,3.30
2022-08-18T11:51:27.309Z,2.97
2022-08-18T11:54:04.946Z,3.10
2022-08-18T11:56:35.928Z,3.13
2022-08-18T12:02:26.000Z,3.13
2022-08-18T12:05:10.604Z,3.25
2022-08-18T12:07:46.304Z,3.50
2022-08-18T12:10:29.545Z,3.42
2022-08-18T12:13:01.444Z,3.40
2022-08-18T12:15:43.783Z,3.60
2022-08-18T12:21:03.284Z,3.38
2022-08-18T12:23:38.375Z,3.53
2022-08-18T12:26:27.426Z,3.60
2022-08-18T12:29:01.467Z,3.80
2022-08-18T12:31:47.552Z,4.13
2022-08-18T12:34:16.536Z,4.00
2022-08-18T12:36:45.852Z,4.35
2022-08-18T12:39:13.573Z,4.10
2022-08-18T12:41:41.208Z,4.15
2022-08-18T12:44:13.332Z,4.53
2022-08-18T12:46:42.807Z,4.75
2022-08-18T12:49:24.278Z,4.47
2022-08-18T12:51:52.741Z,4.40
2022-08-18T12:54:22.952Z,4.35
2022-08-18T12:56:56.086Z,4.55
2022-08-18T12:59:24.412Z,4.75
2022-08-18T13:01:58.510Z,4.32
2022-08-18T13:04:27.338Z,4.80
2022-08-18T13:07:00.689Z,4.75
2022-08-18T13:09:35.661Z,4.72
2022-08-18T13:12:20.537Z,4.82
2022-08-18T13:14:48.614Z,4.88
2022-08-18T13:17:32.210Z,4.72
2022-08-18T13:20:03.151Z,5.10
2022-08-18T13:22:32.547Z,5.30
2022-08-18T13:25:01.965Z,4.85
2022-08-18T13:27:35.739Z,5.20
2022-08-18T13:30:30.119Z,5.57
2022-08-18T13:33:02.634Z,5.30
2022-08-18T13:35:48.074Z,5.40
2022-08-18T13:38:27.283Z,5.47
2022-08-18T13:40:58.204Z,5.45
2022-08-18T13:43:35.543Z,5.50
2022-08-18T13:46:09.248Z,5.70
2022-08-18T13:48:37.884Z,5.40
2022-08-18T13:51:08.468Z,5.70
2022-08-18T13:53:50.527Z,5.60
2022-08-18T13:56:19.727Z,5.65
2022-08-18T13:58:53.290Z,5.35
2022-08-18T14:01:44.864Z,5.88
2022-08-18T14:04:12.697Z,6.15
2022-08-18T14:06:46.825Z,6.57
2022-08-18T14:09:28.077Z,6.05
2022-08-18T14:12:15.290Z,6.15
2022-08-18T14:14:52.052Z,6.07
2022-08-18T14:17:22.485Z,6.80
2022-08-18T14:20:15.238Z,7.10
2022-08-18T14:23:11.476Z,6.30
2022-08-18T14:25:57.855Z,6.20
2022-08-18T14:28:28.774Z,6.07
2022-08-18T14:35:34.005Z,6.65
2022-08-18T14:38:08.110Z,6.47
2022-08-18T14:40:41.760Z,6.68
2022-08-18T14:43:14.244Z,6.70
2022-08-18T14:45:47.419Z,6.50
2022-08-18T14:48:19.023Z,7.07
2022-08-18T14:50:52.977Z,6.63
2022-08-18T14:53:24.101Z,6.53
2022-08-18T14:55:53.778Z,6.50
2022-08-18T14:58:28.781Z,6.78
2022-08-18T15:01:00.768Z,6.25
2022-08-18T15:03:31.798Z,6.25
2022-08-18T15:06:04.890Z,6.38
2022-08-18T15:08:35.474Z,6.17
2022-08-18T15:11:03.924Z,6.32
2022-08-18T15:13:32.131Z,6.30
2022-08-18T15:16:02.173Z,6.10
2022-08-18T15:18:29.929Z,5.70
2022-08-18T15:21:34.067Z,6.68
2022-08-18T15:24:24.465Z,6.75
2022-08-18T15:26:58.142Z,6.53
2022-08-18T15:29:31.154Z,6.75
2022-08-18T15:32:05.617Z,6.57
2022-08-18T15:34:47.330Z,6.18
2022-08-18T15:37:20.245Z,6.38
2022-08-18T15:39:51.919Z,6.38
2022-08-18T15:42:23.905Z,6.30
2022-08-18T15:44:53.658Z,6.43
2022-08-18T15:47:22.217Z,7.03
2022-08-18T15:49:55.017Z,6.85
2022-08-18T15:52:24.536Z,6.20
2022-08-18T15:54:56.963Z,6.75
2022-08-18T15:57:39.377Z,6.43
2022-08-18T16:00:12.280Z,6.15
2022-08-18T16:02:44.514Z,5.78
2022-08-18T16:05:16.820Z,5.82
2022-08-18T16:07:45.983Z,5.80
2022-08-18T16:10:16.029Z,5.20
2022-08-18T16:12:45.902Z,5.45
2022-08-18T16:15:19.669Z,4.85
2022-08-18T16:17:50.352Z,4.80
2022-08-18T16:20:19.039Z,4.22
2022-08-18T16:22:47.823Z,4.18
2022-08-18T16:25:16.600Z,4.38
2022-08-18T16:27:45.625Z,4.50
2022-08-18T16:30:17.197Z,4.32
2022-08-18T16:32:45.343Z,4.00
2022-08-18T16:35:12.972Z,3.70
2022-08-18T16:37:40.634Z,3.92
2022-08-18T16:40:09.146Z,3.10
2022-08-18T16:42:37.462Z,3.67
2022-08-18T16:45:06.283Z,3.72
2022-08-18T16:47:39.149Z,3.70
2022-08-18T16:50:13.826Z,3.15
2022-08-18T16:52:41.920Z,3.13
2022-08-18T16:55:11.005Z,3.05
2022-08-18T16:58:02.087Z,3.05
2022-08-18T17:00:54.447Z,2.70
2022-08-18T17:03:42.962Z,2.78
2022-08-18T17:06:14.049Z,2.30
2022-08-18T17:08:42.579Z,2.85
2022-08-18T17:11:16.072Z,2.80
2022-08-18T17:13:44.557Z,2.65
2022-08-18T17:16:12.818Z,2.53
2022-08-18T17:18:40.971Z,2.25
2022-08-18T17:21:10.658Z,2.58
2022-08-18T17:23:39.110Z,2.50
2022-08-18T17:26:10.033Z,2.45
2022-08-18T17:28:50.530Z,2.20
2022-08-18T17:31:24.580Z,2.65
2022-08-18T17:33:57.317Z,2.05
2022-08-18T17:36:36.175Z,2.08
2022-08-18T17:39:08.500Z,1.90
2022-08-18T17:41:56.440Z,1.70
2022-08-18T17:44:31.165Z,1.92
2022-08-18T17:47:02.309Z,1.52
2022-08-18T17:49:54.355Z,2.35
2022-08-18T17:52:53.418Z,1.45
2022-08-18T17:55:28.873Z,1.77
2022-08-18T17:58:28.720Z,1.58
2022-08-18T18:00:56.157Z,1.77
2022-08-18T18:03:23.451Z,1.50
2022-08-18T18:06:03.669Z,2.00
2022-08-18T18:08:55.026Z,1.50
2022-08-18T18:11:34.483Z,1.40
2022-08-18T18:14:47.974Z,1.50
2022-08-18T18:17:20.773Z,1.42
2022-08-18T18:19:51.535Z,1.52
2022-08-18T18:22:28.849Z,1.55
2022-08-18T18:25:06.877Z,1.35
2022-08-18T18:27:41.899Z,1.48
2022-08-18T18:30:09.596Z,1.63
2022-08-18T18:32:59.692Z,1.52
2022-08-18T18:35:53.118Z,1.52
2022-08-18T18:41:24.742Z,1.60
2022-08-18T18:44:15.179Z,1.88
2022-08-18T18:47:01.230Z,1.30
2022-08-18T18:49:53.289Z,1.60
2022-08-18T18:52:44.824Z,1.77
2022-08-18T18:55:23.429Z,1.40
2022-08-18T18:58:03.994Z,1.80
2022-08-18T19:00:53.718Z,2.00
2022-08-18T19:03:28.319Z,1.70
2022-08-18T19:06:47.114Z,1.80
2022-08-18T19:09:50.328Z,2.00
2022-08-18T19:12:23.699Z,1.98
2022-08-18T19:15:14.997Z,1.90
2022-08-18T19:17:58.645Z,1.83
2022-08-18T19:20:36.955Z,1.55
2022-08-18T19:23:44.354Z,1.60
2022-08-18T19:26:17.414Z,1.40
2022-08-18T19:29:12.575Z,1.95
2022-08-18T19:31:42.130Z,1.60
2022-08-18T19:34:22.418Z,1.60
2022-08-18T19:37:12.209Z,1.60
2022-08-18T19:40:21.466Z,1.80
2022-08-18T19:43:40.916Z,1.75
2022-08-18T19:46:24.513Z,1.65
2022-08-18T19:49:02.660Z,1.80
2022-08-18T19:51:30.024Z,1.55
2022-08-18T19:54:26.410Z,1.90
2022-08-18T19:57:18.694Z,2.10
2022-08-18T20:00:11.853Z,2.10
2022-08-18T20:03:12.604Z,2.10
2022-08-18T20:05:55.257Z,2.45
2022-08-18T20:09:03.368Z,3.20
2022-08-18T20:11:41.850Z,3.10
2022-08-18T20:14:12.682Z,2.63
2022-08-18T20:16:44.885Z,2.83
2022-08-18T20:19:39.387Z,3.03
2022-08-18T20:22:16.214Z,2.60
2022-08-18T20:24:57.662Z,2.42
2022-08-18T20:27:38.025Z,2.30
2022-08-18T20:30:20.460Z,2.47
2022-08-18T20:33:24.285Z,2.30
2022-08-18T20:36:11.499Z,2.38
2022-08-18T20:38:47.135Z,1.98
2022-08-18T20:41:33.077Z,2.00
2022-08-18T20:44:34.442Z,2.15
2022-08-18T20:47:22.351Z,2.20
2022-08-18T20:50:12.632Z,1.90
2022-08-18T20:53:25.940Z,1.88
2022-08-18T20:56:31.378Z,2.33
2022-08-18T20:59:18.449Z,2.10
2022-08-18T21:01:58.948Z,2.10
2022-08-18T21:04:47.363Z,2.20
2022-08-18T21:07:37.036Z,2.42
2022-08-18T21:10:34.092Z,2.10
2022-08-18T21:13:04.140Z,2.20
2022-08-18T21:15:37.463Z,2.28
2022-08-18T21:18:24.402Z,2.15
2022-08-18T21:20:54.329Z,2.38
2022-08-18T21:23:33.737Z,1.90
2022-08-18T21:26:13.862Z,2.15
2022-08-18T21:28:45.612Z,2.00
2022-08-18T21:31:43.935Z,1.77
2022-08-18T21:34:33.417Z,2.17
2022-08-18T21:37:06.465Z,2.17
2022-08-18T21:39:35.174Z,2.00
2022-08-18T21:42:02.637Z,2.03
2022-08-18T21:44:41.922Z,2.28
2022-08-18T21:47:20.122Z,2.50
2022-08-18T21:50:10.312Z,2.20
2022-08-18T21:52:50.529Z,2.10
2022-08-18T21:55:30.226Z,2.40
2022-08-18T21:58:03.081Z,1.98
2022-08-18T22:00:37.760Z,2.40
2022-08-18T22:03:26.569Z,2.10
2022-08-18T22:06:03.603Z,2.55
2022-08-18T22:08:49.913Z,2.33
2022-08-18T22:11:59.809Z,2.50
2022-08-18T22:14:53.568Z,2.20
2022-08-18T22:17:27.847Z,2.33
2022-08-18T22:22:41.912Z,2.10
2022-08-18T22:25:12.111Z,2.25
2022-08-18T22:27:40.109Z,2.22
2022-08-18T22:30:08.133Z,2.40
2022-08-18T22:32:37.877Z,2.25
2022-08-18T22:35:07.833Z,2.20
2022-08-18T22:37:50.176Z,2.20
2022-08-18T22:40:21.955Z,2.28
2022-08-18T22:42:49.596Z,2.13
2022-08-18T22:45:18.818Z,2.45
2022-08-18T22:47:46.146Z,2.40
2022-08-18T22:50:14.155Z,2.30
2022-08-18T22:52:46.479Z,2.42
2022-08-18T22:55:21.928Z,2.08
2022-08-18T22:57:55.866Z,2.00
2022-08-18T23:00:25.325Z,2.00
2022-08-18T23:02:54.222Z,2.20
2022-08-18T23:05:21.744Z,2.55
2022-08-18T23:07:49.831Z,2.38
2022-08-18T23:10:17.215Z,2.50
2022-08-18T23:12:46.802Z,2.40
2022-08-18T23:15:15.448Z,2.25
2022-08-18T23:17:43.989Z,2.03
2022-08-18T23:20:17.417Z,2.30
2022-08-18T23:25:13.569Z,1.90
2022-08-18T23:27:42.087Z,2.30
2022-08-18T23:30:10.652Z,2.50
2022-08-18T23:32:38.105Z,2.33
2022-08-18T23:35:05.757Z,2.20
2022-08-18T23:37:32.984Z,2.03
2022-08-18T23:40:00.319Z,2.17
2022-08-18T23:42:27.860Z,2.03
2022-08-18T23:45:03.314Z,2.22
2022-08-18T23:47:31.024Z,2.10
2022-08-18T23:49:58.308Z,2.30
2022-08-18T23:52:25.615Z,2.40
2022-08-18T23:54:52.998Z,2.33
2022-08-18T23:57:20.432Z,2.20
2022-08-18T23:59:47.728Z,2.40
